Time;durP1;ratioP1;P1;durP2;ratioP2;P2;SDS_P1;SDS_P2;PMS_P1;PMS_P2;Temp;Humidity;BMP_temperature;BMP_pressure;BME280_temperature;BME280_humidity;BME280_pressure;Samples;Min_cycle;Max_cycle;Signal;HPM_P1;HPM_P2
2022/08/01 00:02:07;;;;;;;12.27;9.03;;;20.80;99.90;;;;;;5031039;28;20460;-72
2022/08/01 00:04:33;;;;;;;15.20;8.90;;;20.80;99.90;;;;;;5034682;28;20488;-72
2022/08/01 00:07:02;;;;;;;12.43;9.40;;;20.80;99.90;;;;;;5036455;28;20460;-72
2022/08/01 00:09:28;;;;;;;24.97;11.77;;;20.70;99.90;;;;;;5038044;28;20480;-72
2022/08/01 00:11:55;;;;;;;19.03;10.37;;;20.60;99.90;;;;;;5027463;28;20460;-70
2022/08/01 00:14:22;;;;;;;14.60;10.90;;;20.70;99.90;;;;;;5019116;28;20456;-71
2022/08/01 00:16:49;;;;;;;15.30;10.40;;;20.60;99.90;;;;;;5025514;28;20470;-73
2022/08/01 00:19:16;;;;;;;18.67;11.93;;;20.70;99.90;;;;;;5036748;28;20468;-72
2022/08/01 00:21:43;;;;;;;19.87;10.77;;;20.60;99.90;;;;;;5034185;28;20471;-73
2022/08/01 00:24:11;;;;;;;16.70;13.07;;;20.60;99.90;;;;;;5034173;28;20467;-72
2022/08/01 00:26:38;;;;;;;21.00;11.20;;;20.60;99.90;;;;;;5043430;28;20465;-72
2022/08/01 00:29:05;;;;;;;17.23;12.63;;;20.40;99.90;;;;;;5031138;28;20491;-73
2022/08/01 00:31:32;;;;;;;14.17;10.53;;;20.50;99.90;;;;;;5019970;28;20460;-73
2022/08/01 00:33:59;;;;;;;21.80;13.30;;;20.60;99.90;;;;;;5032324;28;20471;-73
2022/08/01 00:36:25;;;;;;;19.50;11.40;;;20.70;99.90;;;;;;5038351;28;21119;-73
2022/08/01 00:38:52;;;;;;;19.37;11.40;;;20.70;99.90;;;;;;5032941;28;20484;-72
2022/08/01 00:41:20;;;;;;;19.87;12.70;;;20.50;99.90;;;;;;5038165;28;20456;-73
2022/08/01 00:43:47;;;;;;;17.73;10.90;;;20.50;99.90;;;;;;5036228;28;20957;-72
2022/08/01 00:46:14;;;;;;;15.97;11.30;;;20.60;99.90;;;;;;5035665;28;20479;-72
2022/08/01 00:48:41;;;;;;;19.13;11.57;;;20.60;99.90;;;;;;5038283;28;20492;-73
2022/08/01 00:51:09;;;;;;;22.03;13.70;;;20.50;99.90;;;;;;5039867;22;20509;-71
2022/08/01 00:53:36;;;;;;;13.90;9.50;;;20.60;99.90;;;;;;4995577;28;20568;-70
2022/08/01 00:56:03;;;;;;;20.93;11.50;;;20.60;99.90;;;;;;4989011;28;20465;-71
2022/08/01 00:58:32;;;;;;;16.30;11.53;;;20.60;99.90;;;;;;4994986;28;20464;-71
2022/08/01 01:00:59;;;;;;;16.77;10.00;;;20.70;99.90;;;;;;4989127;28;20483;-71
2022/08/01 01:03:26;;;;;;;22.73;12.53;;;20.60;99.90;;;;;;4984168;28;20954;-71
2022/08/01 01:06:02;;;;;;;17.73;13.70;;;20.70;99.90;;;;;;4982250;28;21855;-71
2022/08/01 01:08:36;;;;;;;18.20;10.60;;;20.70;99.90;;;;;;4984141;28;20454;-71
2022/08/01 01:11:09;;;;;;;18.47;11.43;;;20.70;99.90;;;;;;4987139;28;21120;-71
2022/08/01 01:13:41;;;;;;;21.60;11.60;;;20.70;99.90;;;;;;4988247;28;20493;-71
2022/08/01 01:16:14;;;;;;;21.00;11.73;;;20.70;99.90;;;;;;4982045;28;20450;-71
2022/08/01 01:18:46;;;;;;;20.73;12.43;;;20.50;99.90;;;;;;4986634;28;20461;-71
2022/08/01 01:21:41;;;;;;;13.67;10.30;;;20.50;99.90;;;;;;4988531;28;20493;-71
2022/08/01 01:24:18;;;;;;;17.20;12.40;;;20.50;99.90;;;;;;4981725;28;20913;-71
2022/08/01 01:26:50;;;;;;;15.83;11.60;;;20.50;99.90;;;;;;4985721;28;20476;-71
2022/08/01 01:29:24;;;;;;;24.40;13.00;;;20.60;99.90;;;;;;4988469;28;20458;-71
2022/08/01 01:31:56;;;;;;;16.53;13.23;;;20.60;99.90;;;;;;4987348;28;20950;-72
2022/08/01 01:34:24;;;;;;;20.07;13.60;;;20.60;99.90;;;;;;4987560;28;20590;-71
2022/08/01 01:36:54;;;;;;;21.17;13.97;;;20.60;99.90;;;;;;4981704;28;20462;-71
2022/08/01 01:39:24;;;;;;;20.57;13.20;;;20.50;99.90;;;;;;4982659;28;20454;-71
2022/08/01 01:41:54;;;;;;;19.20;10.47;;;20.40;99.90;;;;;;4980484;28;20521;-71
2022/08/01 01:44:23;;;;;;;20.27;11.20;;;20.50;99.90;;;;;;4978777;28;20876;-71
2022/08/01 01:46:52;;;;;;;22.63;13.07;;;20.40;99.90;;;;;;4984152;28;20502;-71
2022/08/01 01:49:22;;;;;;;17.03;12.27;;;20.40;99.90;;;;;;4982791;28;20582;-71
2022/08/01 01:51:51;;;;;;;21.50;13.80;;;20.40;99.90;;;;;;4979264;28;20489;-71
2022/08/01 01:54:19;;;;;;;20.10;13.10;;;20.50;99.90;;;;;;4983485;28;20462;-71
2022/08/01 01:56:52;;;;;;;22.80;13.47;;;20.50;99.90;;;;;;4982959;28;20838;-71
2022/08/01 01:59:25;;;;;;;25.10;15.10;;;20.50;99.90;;;;;;4989296;28;20461;-71
2022/08/01 02:01:56;;;;;;;22.27;12.63;;;20.40;99.90;;;;;;4979558;28;20485;-71
2022/08/01 02:04:25;;;;;;;18.53;11.90;;;20.40;99.90;;;;;;4983408;28;20502;-70
2022/08/01 02:06:53;;;;;;;27.47;14.83;;;20.40;99.90;;;;;;4986259;28;20487;-70
2022/08/01 02:09:22;;;;;;;28.90;13.77;;;20.30;99.90;;;;;;4987853;28;20469;-70
2022/08/01 02:11:50;;;;;;;27.70;13.50;;;20.30;99.90;;;;;;4989502;28;20622;-70
2022/08/01 02:14:19;;;;;;;17.07;10.77;;;20.30;99.90;;;;;;4986524;28;20470;-70
2022/08/01 02:16:49;;;;;;;19.80;12.50;;;20.30;99.90;;;;;;4982209;28;21065;-70
2022/08/01 02:19:17;;;;;;;21.60;12.07;;;20.40;99.90;;;;;;4987874;28;20473;-70
2022/08/01 02:21:49;;;;;;;21.13;11.70;;;20.50;99.90;;;;;;4987211;28;20522;-70
2022/08/01 02:24:29;;;;;;;16.80;10.00;;;20.40;99.90;;;;;;4986133;28;20462;-70
2022/08/01 02:27:00;;;;;;;16.70;11.40;;;20.40;99.90;;;;;;4984083;28;20480;-70
2022/08/01 02:29:33;;;;;;;17.67;10.07;;;20.50;99.90;;;;;;4987267;28;20468;-70
2022/08/01 02:32:03;;;;;;;20.70;12.63;;;20.50;99.90;;;;;;4985345;28;20730;-70
2022/08/01 02:34:32;;;;;;;17.60;11.23;;;20.60;99.90;;;;;;4989773;28;20469;-70
2022/08/01 02:37:01;;;;;;;15.13;10.07;;;20.60;99.90;;;;;;4988349;28;20975;-70
2022/08/01 02:39:31;;;;;;;18.90;9.77;;;20.50;99.90;;;;;;4987169;28;20972;-70
2022/08/01 02:42:01;;;;;;;12.60;10.40;;;20.60;99.90;;;;;;4994779;28;20478;-70
2022/08/01 02:44:36;;;;;;;15.80;10.10;;;20.50;99.90;;;;;;4994128;28;20795;-70
2022/08/01 02:47:05;;;;;;;17.20;10.70;;;20.50;99.90;;;;;;4990390;28;20893;-70
2022/08/01 02:49:34;;;;;;;19.57;11.90;;;20.60;99.90;;;;;;4993351;28;20454;-70
2022/08/01 02:52:04;;;;;;;16.40;10.73;;;20.50;99.90;;;;;;4984508;28;20500;-70
2022/08/01 02:54:33;;;;;;;20.93;13.40;;;20.60;99.90;;;;;;4987731;28;20465;-70
2022/08/01 02:57:03;;;;;;;16.53;9.73;;;20.50;99.90;;;;;;4980375;28;20589;-69
2022/08/01 02:59:32;;;;;;;18.00;11.03;;;20.50;99.90;;;;;;4991848;28;21018;-70
2022/08/01 03:02:02;;;;;;;17.00;9.73;;;20.40;99.90;;;;;;4980946;28;20469;-70
2022/08/01 03:04:32;;;;;;;14.07;9.83;;;20.40;99.90;;;;;;4986019;28;20562;-71
2022/08/01 03:07:00;;;;;;;21.20;10.37;;;20.40;99.90;;;;;;4982138;28;20898;-71
2022/08/01 03:09:30;;;;;;;14.07;9.07;;;20.40;99.90;;;;;;4988569;28;20988;-71
2022/08/01 03:12:00;;;;;;;14.33;8.27;;;20.50;99.90;;;;;;4982169;28;20496;-71
2022/08/01 03:14:28;;;;;;;15.70;10.20;;;20.30;99.90;;;;;;4980660;28;20458;-70
2022/08/01 03:16:57;;;;;;;15.73;10.53;;;20.30;99.90;;;;;;4992023;28;21165;-70
2022/08/01 03:19:27;;;;;;;16.33;8.87;;;20.30;99.90;;;;;;4989431;28;20472;-70
2022/08/01 03:21:58;;;;;;;14.37;8.47;;;20.20;99.90;;;;;;4985684;28;20488;-71
2022/08/01 03:24:26;;;;;;;17.53;8.90;;;20.20;99.90;;;;;;4983258;28;20464;-71
2022/08/01 03:26:54;;;;;;;14.90;9.87;;;20.20;99.90;;;;;;4989334;28;20482;-71
2022/08/01 03:29:24;;;;;;;14.13;8.60;;;20.30;99.90;;;;;;4990466;28;20461;-71
2022/08/01 03:31:52;;;;;;;17.37;10.73;;;20.30;99.90;;;;;;4981172;28;20877;-71
2022/08/01 03:34:21;;;;;;;17.47;9.70;;;20.30;99.90;;;;;;4969827;28;20458;-71
2022/08/01 03:36:50;;;;;;;16.43;10.33;;;20.20;99.90;;;;;;4987082;28;20470;-71
2022/08/01 03:39:22;;;;;;;19.40;9.20;;;20.00;99.90;;;;;;4993512;28;20967;-70
2022/08/01 03:41:56;;;;;;;14.10;9.20;;;20.00;99.90;;;;;;4994490;28;20475;-71
2022/08/01 03:44:27;;;;;;;15.63;8.97;;;20.00;99.90;;;;;;4998513;28;20836;-70
2022/08/01 03:47:00;;;;;;;20.10;11.43;;;19.90;99.90;;;;;;4983242;28;20735;-71
2022/08/01 03:49:31;;;;;;;15.27;9.30;;;20.00;99.90;;;;;;4978559;28;20979;-70
2022/08/01 03:51:59;;;;;;;15.50;9.33;;;20.00;99.90;;;;;;4991888;28;20566;-71
2022/08/01 03:54:33;;;;;;;16.67;9.90;;;20.20;99.90;;;;;;4991722;28;20749;-71
2022/08/01 03:57:01;;;;;;;19.40;10.60;;;20.30;99.90;;;;;;4994846;28;20865;-71
2022/08/01 03:59:29;;;;;;;23.63;10.67;;;20.40;99.90;;;;;;4994049;28;20468;-70
2022/08/01 04:01:57;;;;;;;14.90;10.03;;;20.40;99.90;;;;;;4985079;28;20477;-71
2022/08/01 04:04:25;;;;;;;12.40;7.93;;;20.30;99.90;;;;;;4983351;28;20917;-71
2022/08/01 04:06:53;;;;;;;15.43;8.40;;;20.30;99.90;;;;;;4993143;28;21113;-70
2022/08/01 04:09:20;;;;;;;11.80;8.60;;;20.30;99.90;;;;;;4996352;28;20450;-70
2022/08/01 04:11:49;;;;;;;12.30;6.80;;;20.30;99.90;;;;;;4995208;28;20458;-71
2022/08/01 04:14:16;;;;;;;14.43;7.80;;;20.40;99.90;;;;;;4986241;28;20457;-71
2022/08/01 04:16:43;;;;;;;13.93;7.63;;;20.40;99.90;;;;;;4985882;28;20457;-70
2022/08/01 04:19:10;;;;;;;10.63;5.93;;;20.30;99.90;;;;;;4987444;28;20903;-71
2022/08/01 04:21:37;;;;;;;14.40;7.80;;;20.20;99.90;;;;;;4994350;28;20559;-72
2022/08/01 04:24:08;;;;;;;12.87;7.47;;;20.10;99.90;;;;;;4992858;28;20509;-71
2022/08/01 04:26:36;;;;;;;12.87;8.23;;;19.90;99.90;;;;;;4990719;28;20493;-71
2022/08/01 04:29:07;;;;;;;13.63;7.70;;;20.10;99.90;;;;;;4993783;28;20470;-71
2022/08/01 04:31:35;;;;;;;14.07;8.20;;;20.10;99.90;;;;;;4986982;28;20486;-72
2022/08/01 04:34:05;;;;;;;15.70;7.10;;;20.20;99.90;;;;;;4988081;28;20456;-71
2022/08/01 04:36:36;;;;;;;14.10;8.77;;;20.30;99.90;;;;;;4983747;28;20488;-71
2022/08/01 04:39:04;;;;;;;12.80;7.77;;;20.40;99.90;;;;;;4992242;28;20450;-71
2022/08/01 04:41:32;;;;;;;12.23;7.80;;;20.30;99.90;;;;;;4996028;28;20481;-71
2022/08/01 04:44:00;;;;;;;9.53;6.53;;;20.20;99.90;;;;;;4993915;28;20452;-72
2022/08/01 04:46:29;;;;;;;15.20;6.87;;;20.20;99.90;;;;;;4992751;28;20483;-71
2022/08/01 04:48:57;;;;;;;11.70;6.93;;;20.20;99.90;;;;;;5000394;28;20450;-71
2022/08/01 04:51:24;;;;;;;12.37;8.40;;;20.30;99.90;;;;;;4989237;28;20502;-71
2022/08/01 04:53:51;;;;;;;13.90;7.13;;;20.40;99.90;;;;;;4999797;28;20935;-71
2022/08/01 04:56:19;;;;;;;10.37;6.93;;;20.40;99.90;;;;;;4992442;28;20450;-71
2022/08/01 04:58:46;;;;;;;11.23;7.20;;;20.50;99.90;;;;;;4996755;28;20547;-70
2022/08/01 05:01:13;;;;;;;11.83;7.70;;;20.40;99.90;;;;;;4991096;28;20498;-71
2022/08/01 05:03:41;;;;;;;16.00;7.70;;;20.50;99.90;;;;;;4990567;28;20470;-70
2022/08/01 05:06:08;;;;;;;12.10;8.90;;;20.50;99.90;;;;;;4979471;28;20478;-71
2022/08/01 05:08:35;;;;;;;11.83;8.43;;;20.60;99.90;;;;;;4988345;28;20454;-71
2022/08/01 05:11:02;;;;;;;11.37;8.53;;;20.50;99.90;;;;;;4994803;28;20482;-70
2022/08/01 05:13:29;;;;;;;16.30;9.43;;;20.50;99.90;;;;;;4991605;28;20481;-71
2022/08/01 05:15:56;;;;;;;11.07;8.00;;;20.70;99.90;;;;;;4992865;28;20610;-71
2022/08/01 05:18:23;;;;;;;13.13;7.53;;;20.70;99.90;;;;;;4991056;28;21045;-71
2022/08/01 05:20:51;;;;;;;14.00;7.73;;;20.70;99.90;;;;;;4990592;28;20465;-71
2022/08/01 05:23:18;;;;;;;15.00;9.13;;;20.60;99.90;;;;;;4991357;28;20480;-71
2022/08/01 05:25:45;;;;;;;12.20;8.17;;;20.50;99.90;;;;;;4996721;28;20453;-71
2022/08/01 05:28:12;;;;;;;11.87;7.63;;;20.60;99.90;;;;;;4995782;28;20454;-71
2022/08/01 05:30:40;;;;;;;9.90;6.90;;;20.60;99.90;;;;;;4993676;28;20466;-71
2022/08/01 05:33:06;;;;;;;20.20;8.70;;;20.50;99.90;;;;;;4992144;28;20584;-71
2022/08/01 05:35:33;;;;;;;9.87;5.83;;;20.60;99.90;;;;;;4992451;28;20775;-71
2022/08/01 05:38:02;;;;;;;10.40;6.57;;;20.50;99.90;;;;;;4995062;28;20458;-71
2022/08/01 05:40:28;;;;;;;9.67;5.43;;;20.40;99.90;;;;;;4992867;28;20528;-71
2022/08/01 05:42:55;;;;;;;10.67;6.30;;;20.40;99.90;;;;;;4994374;28;20477;-71
2022/08/01 05:45:22;;;;;;;10.53;7.10;;;20.40;99.90;;;;;;4989001;28;20536;-71
2022/08/01 05:47:49;;;;;;;8.97;5.87;;;20.30;99.90;;;;;;4993232;28;20505;-71
2022/08/01 05:50:15;;;;;;;9.30;6.60;;;20.40;99.90;;;;;;4993366;28;20515;-71
2022/08/01 05:52:42;;;;;;;13.10;7.17;;;20.50;99.90;;;;;;4991887;28;20446;-71
2022/08/01 05:55:11;;;;;;;12.90;5.97;;;20.30;99.90;;;;;;4989181;28;20446;-71
2022/08/01 05:57:37;;;;;;;11.00;5.97;;;20.30;99.90;;;;;;4991889;28;20458;-71
2022/08/01 06:00:06;;;;;;;10.27;5.90;;;20.30;99.90;;;;;;4986846;28;20977;-71
2022/08/01 06:02:32;;;;;;;14.20;7.17;;;20.30;99.90;;;;;;4990884;28;20457;-71
2022/08/01 06:04:59;;;;;;;11.23;7.77;;;20.40;99.90;;;;;;4991585;28;20461;-71
2022/08/01 06:07:26;;;;;;;17.13;7.77;;;20.40;99.90;;;;;;4990595;28;20504;-71
2022/08/01 06:09:53;;;;;;;13.23;9.03;;;20.40;99.90;;;;;;4992247;28;20585;-71
2022/08/01 06:12:21;;;;;;;10.80;6.80;;;20.40;99.90;;;;;;4992969;28;20478;-71
2022/08/01 06:14:48;;;;;;;13.90;7.30;;;20.30;99.90;;;;;;4994397;28;20466;-70
2022/08/01 06:17:14;;;;;;;11.07;6.67;;;20.30;99.90;;;;;;4994803;28;20462;-71
2022/08/01 06:19:41;;;;;;;9.57;6.40;;;20.40;99.90;;;;;;4997943;28;20459;-71
2022/08/01 06:22:08;;;;;;;11.87;7.47;;;20.60;99.90;;;;;;4993032;28;20930;-71
2022/08/01 06:24:35;;;;;;;10.77;6.70;;;20.70;99.90;;;;;;4993542;28;20476;-71
2022/08/01 06:27:02;;;;;;;10.30;6.77;;;20.70;99.90;;;;;;4997773;28;20474;-71
2022/08/01 06:29:32;;;;;;;8.40;5.57;;;20.80;99.90;;;;;;4995728;28;20454;-71
2022/08/01 06:31:59;;;;;;;6.53;4.50;;;20.90;99.90;;;;;;4994307;28;20481;-71
2022/08/01 06:34:26;;;;;;;10.40;5.30;;;21.00;99.90;;;;;;4993864;28;20450;-71
2022/08/01 06:36:53;;;;;;;6.37;4.60;;;21.10;99.90;;;;;;4994452;28;20445;-71
2022/08/01 06:39:20;;;;;;;7.23;5.20;;;21.00;99.90;;;;;;4995374;28;20460;-71
2022/08/01 06:41:46;;;;;;;8.97;4.93;;;21.00;99.90;;;;;;4996010;28;20500;-71
2022/08/01 06:44:13;;;;;;;8.90;5.83;;;21.30;99.90;;;;;;4989917;28;20477;-71
2022/08/01 06:46:42;;;;;;;8.90;5.13;;;21.30;99.90;;;;;;4996066;28;20578;-71
2022/08/01 06:49:08;;;;;;;6.40;4.20;;;21.40;99.90;;;;;;4994468;28;20633;-71
2022/08/01 06:51:35;;;;;;;9.13;5.07;;;21.80;99.90;;;;;;4995893;28;20912;-71
2022/08/01 06:54:02;;;;;;;5.97;4.60;;;22.30;99.90;;;;;;4992674;28;20462;-71
2022/08/01 06:56:29;;;;;;;6.70;4.50;;;22.60;99.90;;;;;;4993515;28;20474;-71
2022/08/01 06:59:00;;;;;;;9.83;5.60;;;22.60;99.90;;;;;;4992554;28;20466;-71
2022/08/01 07:01:27;;;;;;;9.27;5.07;;;22.70;99.90;;;;;;4993228;28;20560;-71
2022/08/01 07:03:55;;;;;;;8.40;5.50;;;22.80;99.90;;;;;;4991356;28;20542;-71
2022/08/01 07:06:23;;;;;;;9.63;4.47;;;22.60;99.90;;;;;;4992621;28;20454;-71
2022/08/01 07:08:50;;;;;;;7.10;4.80;;;22.80;99.90;;;;;;4995366;28;20700;-71
2022/08/01 07:11:17;;;;;;;6.97;4.90;;;22.80;99.90;;;;;;4994910;28;20457;-71
2022/08/01 07:13:45;;;;;;;12.93;6.27;;;22.90;99.90;;;;;;4997762;28;20456;-71
2022/08/01 07:16:12;;;;;;;8.27;4.63;;;22.90;99.90;;;;;;4991162;28;20568;-71
2022/08/01 07:21:23;;;;;;;5.50;4.30;;;23.20;99.90;;;;;;5000808;28;20585;-73
2022/08/01 07:23:49;;;;;;;8.97;5.60;;;23.20;99.90;;;;;;5007730;28;20446;-73
2022/08/01 07:26:17;;;;;;;9.20;5.87;;;23.50;99.90;;;;;;5007964;28;20464;-71
2022/08/01 07:28:44;;;;;;;9.83;7.20;;;23.20;99.90;;;;;;5006740;28;20854;-72
2022/08/01 07:31:10;;;;;;;7.33;5.10;;;23.20;99.90;;;;;;5026581;28;20820;-71
2022/08/01 07:33:37;;;;;;;6.80;5.23;;;22.40;99.90;;;;;;5022464;28;20445;-73
2022/08/01 07:36:05;;;;;;;5.13;4.10;;;22.40;99.90;;;;;;5023508;28;20988;-71
2022/08/01 07:38:33;;;;;;;8.00;6.40;;;22.30;99.90;;;;;;5023522;28;20833;-73
2022/08/01 07:41:00;;;;;;;4.70;3.60;;;22.40;99.90;;;;;;5025821;28;20480;-72
2022/08/01 07:43:26;;;;;;;19.73;5.37;;;22.40;99.90;;;;;;5025028;28;20949;-74
2022/08/01 07:45:53;;;;;;;5.57;4.67;;;22.70;99.90;;;;;;5022211;28;20466;-73
2022/08/01 07:48:23;;;;;;;6.07;3.93;;;23.50;99.90;;;;;;5029633;28;20484;-74
2022/08/01 07:50:50;;;;;;;5.80;3.97;;;24.20;99.90;;;;;;5023813;28;20465;-74
2022/08/01 07:53:17;;;;;;;3.07;2.67;;;25.00;99.90;;;;;;5023894;28;20518;-72
2022/08/01 07:55:45;;;;;;;4.63;3.13;;;25.10;99.90;;;;;;5013783;28;20562;-71
2022/08/01 07:58:12;;;;;;;6.20;4.13;;;24.90;99.90;;;;;;5022444;28;20453;-73
2022/08/01 08:00:39;;;;;;;6.30;4.57;;;24.80;99.90;;;;;;5021400;28;20833;-73
2022/08/01 08:03:06;;;;;;;8.53;4.50;;;24.70;99.90;;;;;;5020727;28;20468;-73
2022/08/01 08:05:34;;;;;;;6.53;4.17;;;25.00;99.90;;;;;;5027548;28;20465;-74
2022/08/01 08:08:01;;;;;;;4.10;3.57;;;25.60;99.90;;;;;;5030875;28;20487;-73
2022/08/01 08:10:28;;;;;;;4.57;2.70;;;25.70;99.90;;;;;;5026035;28;20520;-72
2022/08/01 08:12:56;;;;;;;4.60;3.90;;;25.60;99.90;;;;;;5037903;28;20469;-72
2022/08/01 08:15:23;;;;;;;5.00;4.50;;;25.30;99.90;;;;;;5030562;28;20468;-72
2022/08/01 08:17:50;;;;;;;9.90;5.90;;;25.30;99.90;;;;;;5027171;28;20445;-71
2022/08/01 08:20:17;;;;;;;7.27;6.03;;;25.40;99.90;;;;;;5026337;28;20576;-73
2022/08/01 08:22:44;;;;;;;6.80;5.83;;;24.80;99.90;;;;;;5020451;28;20466;-72
2022/08/01 08:25:11;;;;;;;7.27;5.67;;;24.60;99.90;;;;;;5027521;28;20945;-72
2022/08/01 08:27:38;;;;;;;6.73;4.80;;;25.30;99.90;;;;;;5020658;28;20570;-72
2022/08/01 08:30:08;;;;;;;4.90;4.13;;;25.70;99.90;;;;;;5028510;28;20465;-73
2022/08/01 08:32:35;;;;;;;6.40;3.03;;;26.40;99.90;;;;;;5030713;28;20462;-73
2022/08/01 08:35:02;;;;;;;14.73;4.17;;;26.80;99.90;;;;;;5026004;28;20589;-73
2022/08/01 08:37:29;;;;;;;3.40;3.10;;;26.40;99.90;;;;;;5020345;28;20442;-72
2022/08/01 08:39:55;;;;;;;3.30;3.00;;;25.80;99.90;;;;;;5025976;28;20463;-72
2022/08/01 08:42:23;;;;;;;4.20;3.20;;;25.30;99.90;;;;;;5023181;28;20452;-71
2022/08/01 08:44:50;;;;;;;4.90;2.90;;;25.00;99.90;;;;;;5024588;28;20453;-72
2022/08/01 08:47:19;;;;;;;2.73;2.10;;;25.20;99.90;;;;;;5024546;28;21139;-70
2022/08/01 08:49:47;;;;;;;4.47;2.90;;;26.00;99.90;;;;;;5028819;28;20503;-71
2022/08/01 08:52:15;;;;;;;1.60;1.50;;;27.30;99.90;;;;;;5025563;28;20440;-72
2022/08/01 08:54:43;;;;;;;2.20;1.57;;;27.50;99.90;;;;;;5022414;28;20471;-72
2022/08/01 08:57:13;;;;;;;1.70;1.20;;;27.10;99.90;;;;;;5024988;28;20912;-72
2022/08/01 08:59:40;;;;;;;2.80;1.60;;;26.70;99.90;;;;;;5021105;28;20504;-72
2022/08/01 09:02:09;;;;;;;2.10;1.50;;;26.20;99.90;;;;;;5023775;28;20463;-71
2022/08/01 09:04:38;;;;;;;1.90;1.60;;;26.40;99.90;;;;;;5024215;28;20545;-72
2022/08/01 09:07:06;;;;;;;2.10;1.40;;;27.00;99.90;;;;;;5016533;28;20472;-72
2022/08/01 09:09:33;;;;;;;1.50;1.30;;;26.40;99.90;;;;;;5025309;28;20471;-71
2022/08/01 09:12:00;;;;;;;2.83;1.30;;;26.20;99.90;;;;;;5026202;28;20452;-72
2022/08/01 09:14:30;;;;;;;2.37;1.20;;;25.70;99.90;;;;;;5025727;28;20465;-72
2022/08/01 09:17:01;;;;;;;1.97;1.30;;;25.50;99.90;;;;;;5018819;28;20508;-73
2022/08/01 09:19:37;;;;;;;1.53;1.23;;;25.30;99.90;;;;;;5025591;28;20507;-72
2022/08/01 09:22:06;;;;;;;2.70;1.20;;;25.60;99.90;;;;;;5016287;28;20444;-73
2022/08/01 09:24:34;;;;;;;1.93;1.27;;;26.50;99.90;;;;;;5026679;28;20467;-71
2022/08/01 09:27:02;;;;;;;2.30;1.30;;;26.60;99.90;;;;;;5021156;28;20453;-73
2022/08/01 09:29:32;;;;;;;1.90;1.40;;;26.60;99.90;;;;;;5027685;28;20558;-72
2022/08/01 09:31:59;;;;;;;1.40;1.20;;;26.80;99.90;;;;;;5023274;28;20499;-73
2022/08/01 09:34:27;;;;;;;3.57;2.23;;;27.20;99.90;;;;;;5018053;28;20473;-72
2022/08/01 09:36:58;;;;;;;1.60;1.20;;;27.70;99.90;;;;;;5019576;28;20441;-73
2022/08/01 09:39:26;;;;;;;1.73;1.20;;;28.10;99.90;;;;;;5023627;28;20468;-72
2022/08/01 09:41:53;;;;;;;1.83;1.13;;;29.00;99.90;;;;;;5021866;28;20466;-72
2022/08/01 09:44:21;;;;;;;2.93;2.73;;;29.30;99.90;;;;;;5022387;28;20451;-72
2022/08/01 09:46:53;;;;;;;3.00;1.37;;;30.00;99.90;;;;;;5028888;28;20459;-72
2022/08/01 09:49:31;;;;;;;1.80;1.23;;;30.30;99.90;;;;;;5027202;28;20524;-73
2022/08/01 09:52:10;;;;;;;1.30;1.00;;;30.10;99.90;;;;;;5030494;28;20452;-71
2022/08/01 09:54:37;;;;;;;1.63;1.13;;;29.40;99.90;;;;;;5027460;28;20446;-73
2022/08/01 09:57:13;;;;;;;1.90;1.07;;;28.70;99.90;;;;;;5023368;28;20530;-72
2022/08/01 09:59:42;;;;;;;1.93;1.10;;;29.50;99.90;;;;;;5030350;28;20528;-72
2022/08/01 10:02:10;;;;;;;2.43;1.10;;;29.30;99.90;;;;;;5034782;28;20461;-72
2022/08/01 10:04:37;;;;;;;1.37;1.23;;;28.70;99.90;;;;;;5026391;28;20447;-72
2022/08/01 10:07:08;;;;;;;1.83;1.53;;;28.80;99.90;;;;;;5024590;28;20484;-72
2022/08/01 10:09:37;;;;;;;1.30;0.93;;;29.80;99.90;;;;;;5026381;28;20475;-73
2022/08/01 10:12:05;;;;;;;6.13;4.40;;;29.40;99.90;;;;;;5026632;28;20453;-72
2022/08/01 10:14:32;;;;;;;1.50;1.20;;;29.00;99.90;;;;;;5030692;28;20453;-73
2022/08/01 10:17:01;;;;;;;1.47;1.00;;;28.70;99.90;;;;;;5028287;28;20455;-73
2022/08/01 10:19:30;;;;;;;4.37;1.57;;;28.40;99.90;;;;;;5032546;28;20576;-73
2022/08/01 10:21:58;;;;;;;2.40;1.07;;;27.50;99.90;;;;;;5041813;28;20508;-73
2022/08/01 10:24:28;;;;;;;1.30;0.90;;;26.90;99.90;;;;;;5032728;28;20441;-72
2022/08/01 10:27:04;;;;;;;1.20;0.90;;;26.40;99.90;;;;;;5042477;28;20596;-71
2022/08/01 10:29:37;;;;;;;1.10;0.80;;;25.70;99.90;;;;;;5043401;28;20488;-73
2022/08/01 10:32:06;;;;;;;1.27;0.80;;;25.20;99.90;;;;;;5029352;28;20440;-73
2022/08/01 10:34:35;;;;;;;1.67;1.23;;;24.80;99.90;;;;;;5021895;28;20586;-73
2022/08/01 10:37:03;;;;;;;3.83;1.10;;;24.60;99.90;;;;;;5021183;28;20547;-73
2022/08/01 10:39:32;;;;;;;1.20;1.00;;;24.70;99.90;;;;;;5027411;28;21032;-72
2022/08/01 10:41:59;;;;;;;1.37;1.10;;;24.80;99.90;;;;;;5021416;28;20506;-73
2022/08/01 10:44:28;;;;;;;4.53;1.40;;;26.10;99.90;;;;;;5026787;28;20460;-73
2022/08/01 10:47:12;;;;;;;2.13;1.27;;;27.50;99.90;;;;;;5024941;28;20502;-73
2022/08/01 10:49:44;;;;;;;1.70;1.30;;;27.60;99.90;;;;;;5027439;28;20981;-72
2022/08/01 10:52:16;;;;;;;1.67;1.13;;;26.90;99.90;;;;;;5020481;28;21037;-72
2022/08/01 10:54:44;;;;;;;1.47;1.00;;;26.90;99.90;;;;;;5025922;28;20789;-73
2022/08/01 10:57:12;;;;;;;1.20;0.93;;;27.70;99.90;;;;;;5022732;28;20438;-73
2022/08/01 10:59:49;;;;;;;2.90;1.23;;;28.00;99.90;;;;;;5022722;28;20855;-73
2022/08/01 11:02:28;;;;;;;3.20;2.17;;;28.00;99.90;;;;;;5028541;28;20491;-73
2022/08/01 11:04:58;;;;;;;1.33;0.90;;;28.10;99.90;;;;;;5021688;28;20444;-73
2022/08/01 11:07:42;;;;;;;1.20;0.97;;;27.60;99.90;;;;;;5020600;28;20457;-73
2022/08/01 11:10:20;;;;;;;2.23;1.00;;;26.80;99.90;;;;;;5024853;28;20455;-72
2022/08/01 11:12:47;;;;;;;1.20;0.87;;;26.20;99.90;;;;;;5025657;28;20783;-74
2022/08/01 11:15:27;;;;;;;1.20;0.90;;;26.10;99.90;;;;;;5026468;28;20441;-72
2022/08/01 11:17:55;;;;;;;1.13;0.80;;;26.30;99.90;;;;;;5031980;28;20559;-72
2022/08/01 11:20:23;;;;;;;1.20;0.93;;;26.80;99.90;;;;;;5031123;28;20483;-72
2022/08/01 11:23:18;;;;;;;1.20;0.80;;;27.40;99.90;;;;;;5028109;28;20445;-73
2022/08/01 11:26:09;;;;;;;1.50;0.80;;;28.50;99.90;;;;;;5024467;28;20456;-73
2022/08/01 11:28:36;;;;;;;1.83;0.90;;;28.80;99.90;;;;;;5029697;28;20742;-73
2022/08/01 11:31:29;;;;;;;1.20;0.90;;;29.10;99.90;;;;;;5026621;28;20462;-74
2022/08/01 11:33:56;;;;;;;1.10;0.70;;;29.50;99.90;;;;;;5028215;28;20472;-74
2022/08/01 11:36:23;;;;;;;1.10;0.80;;;30.30;99.90;;;;;;5024518;28;20443;-72
2022/08/01 11:39:06;;;;;;;1.70;0.80;;;31.10;99.90;;;;;;5028256;28;20521;-72
2022/08/01 11:41:35;;;;;;;1.00;0.70;;;31.70;99.90;;;;;;5026818;28;20502;-73
2022/08/01 11:44:04;;;;;;;1.10;0.83;;;31.40;99.90;;;;;;5027625;28;20852;-73
2022/08/01 11:46:48;;;;;;;1.83;1.00;;;31.50;99.90;;;;;;5023656;28;20446;-71
2022/08/01 11:49:25;;;;;;;1.47;0.90;;;31.70;99.90;;;;;;4989252;28;20504;-73
2022/08/01 11:51:59;;;;;;;1.50;0.90;;;31.90;99.90;;;;;;5017525;28;20468;-73
2022/08/01 11:54:27;;;;;;;1.10;0.70;;;31.50;99.90;;;;;;5026233;28;20450;-73
2022/08/01 11:56:58;;;;;;;1.00;0.70;;;31.10;99.90;;;;;;5023595;28;20462;-73
2022/08/01 11:59:26;;;;;;;1.10;0.80;;;31.60;99.90;;;;;;5024342;28;21063;-72
2022/08/01 12:01:53;;;;;;;1.20;0.80;;;32.10;99.90;;;;;;5025436;28;20455;-74
2022/08/01 12:04:20;;;;;;;1.20;0.90;;;32.70;99.90;;;;;;5026483;28;20458;-73
2022/08/01 12:06:46;;;;;;;1.23;1.03;;;31.60;99.90;;;;;;5031001;28;20448;-73
2022/08/01 12:09:18;;;;;;;1.17;0.83;;;30.50;99.90;;;;;;5024715;28;20836;-73
2022/08/01 12:11:46;;;;;;;1.40;1.00;;;29.30;99.90;;;;;;5024184;28;20438;-72
2022/08/01 12:14:20;;;;;;;2.57;1.00;;;28.80;99.90;;;;;;5025528;28;20651;-73
2022/08/01 12:16:52;;;;;;;1.20;0.97;;;28.30;99.90;;;;;;5025977;28;20507;-73
2022/08/01 12:19:22;;;;;;;1.40;1.20;;;28.60;99.90;;;;;;5032992;28;20485;-73
2022/08/01 12:22:13;;;;;;;9.77;1.40;;;28.70;99.90;;;;;;5023857;28;20682;-74
2022/08/01 12:24:43;;;;;;;1.10;0.80;;;28.20;99.90;;;;;;5028342;28;20540;-73
2022/08/01 12:27:12;;;;;;;1.40;1.00;;;27.40;99.90;;;;;;5025889;28;20457;-75
2022/08/01 12:29:41;;;;;;;1.60;1.13;;;27.30;99.90;;;;;;5021162;28;20484;-72
2022/08/01 12:32:26;;;;;;;1.30;1.10;;;27.20;99.90;;;;;;5026937;28;20449;-72
2022/08/01 12:34:54;;;;;;;2.77;1.00;;;26.90;99.90;;;;;;5027633;28;20993;-73
2022/08/01 12:37:22;;;;;;;1.40;1.00;;;26.70;99.90;;;;;;5022640;28;20808;-73
2022/08/01 12:39:49;;;;;;;1.33;0.93;;;26.80;99.90;;;;;;5024142;28;20792;-73
2022/08/01 12:42:16;;;;;;;1.20;0.90;;;26.80;99.90;;;;;;5026597;28;20527;-73
2022/08/01 12:44:46;;;;;;;2.03;1.00;;;27.50;99.90;;;;;;5027752;28;20460;-73
2022/08/01 12:47:15;;;;;;;3.33;1.10;;;27.70;99.90;;;;;;5023661;28;20938;-74
2022/08/01 12:49:44;;;;;;;9.13;1.87;;;27.60;99.90;;;;;;5018773;28;20496;-73
2022/08/01 12:52:11;;;;;;;2.07;1.10;;;27.30;99.90;;;;;;5024748;28;20499;-73
2022/08/01 12:55:08;;;;;;;1.30;1.10;;;27.50;99.90;;;;;;5022467;28;20468;-72